Portada
METAR-TAF:

METAR-TAF

Aeropuertos :

Yida, Arabia Saudita

Aeropuerto Internacional Rey Abdulaziz

latitud: 21-42N, longitud: 039-11E, altitud: 15 m

Observación

El informe se hizo hace 1 hora y 3 minutos, a las 06:00 UTC
Viento 10 kt del norte-noroeste
Temperatura 31°C
Humedad 59%
Presión 1005 hPa
Visibilidad 10 km o más
sin nubes por debajo de 1500 m y sin presencia de cumulonimbus.

METAR: OEJN 240600Z 33010KT CAVOK 31/22 Q1005 NOSIG

Hora: 10:03 (07:03 UTC)

Pronóstico

El informe se hizo hace 14 horas y 3 minutos, a las 17:00 UTC
Pronóstico válido del 23 a las 18 UTC al 24 a las 24 UTC
Viento 8 kt del norte
Visibilidad: 7000 m
Cielo despejado
Evolucionando progresivamente
del 24 a las 06 UTC al 24 a las 08 UTC
Viento 8 kt del oeste-noroeste con ráfagas de 18 kt

TAF: OEJN 231700Z 2318/2424 36008KT 7000 SKC BECMG 2406/2408 30008G18KT

Observaciones y pronósticos meteorológicos de más de 4000 aeropuertos (mensajes METAR y TAF).

Los puntos amarillos y rojos representan las estaciones disponibles.

Ponga el ratón en el punto deseado para ver el nombre de la estación.

Haga clic para ver las observaciones y los pronósticos meteorológicos.

Para cambiar el mapa : haga clic en los botones verdes con una cruz de color negro para hacer un zoom, en el botón verde con un guión para alejar o en las flechas verdes para mapas adyacentes.


METAR-TAF: